createdAt,value
2023-04-27T00:01:57.085Z,0.93
2023-04-27T00:04:30.188Z,1.08
2023-04-27T00:07:03.639Z,1.63
2023-04-27T00:09:36.322Z,1.20
2023-04-27T00:12:10.678Z,1.45
2023-04-27T00:14:43.387Z,1.27
2023-04-27T00:17:16.158Z,1.73
2023-04-27T00:19:48.950Z,1.05
2023-04-27T00:22:22.190Z,1.20
2023-04-27T00:24:54.650Z,1.10
2023-04-27T00:27:28.743Z,1.00
2023-04-27T00:30:01.595Z,1.20
2023-04-27T00:32:40.276Z,1.88
2023-04-27T00:35:13.658Z,1.60
2023-04-27T00:37:48.438Z,1.38
2023-04-27T00:40:22.233Z,1.13
2023-04-27T00:42:56.828Z,1.23
2023-04-27T00:45:31.518Z,1.00
2023-04-27T00:48:04.765Z,1.50
2023-04-27T00:50:39.290Z,1.08
2023-04-27T00:53:12.276Z,1.53
2023-04-27T00:55:45.584Z,0.80
2023-04-27T00:58:19.524Z,1.40
2023-04-27T01:00:52.376Z,1.63
2023-04-27T01:03:26.565Z,1.30
2023-04-27T01:06:02.076Z,1.43
2023-04-27T01:08:34.859Z,1.55
2023-04-27T01:11:08.566Z,1.85
2023-04-27T01:13:42.543Z,0.98
2023-04-27T01:16:17.959Z,1.90
2023-04-27T01:18:50.696Z,1.83
2023-04-27T01:21:23.252Z,1.20
2023-04-27T01:23:58.875Z,2.17
2023-04-27T01:26:31.664Z,1.95
2023-04-27T01:29:04.957Z,1.90
2023-04-27T01:31:39.021Z,1.87
2023-04-27T01:34:12.366Z,1.42
2023-04-27T01:36:44.927Z,2.25
2023-04-27T01:39:19.480Z,1.48
2023-04-27T01:41:51.848Z,1.50
2023-04-27T01:44:25.178Z,1.57
2023-04-27T01:46:57.755Z,1.50
2023-04-27T01:49:31.095Z,1.20
2023-04-27T01:52:04.480Z,1.83
2023-04-27T01:54:40.989Z,1.58
2023-04-27T01:57:14.544Z,1.73
2023-04-27T01:59:47.431Z,1.52
2023-04-27T02:02:20.859Z,1.80
2023-04-27T02:04:53.790Z,1.27
2023-04-27T02:07:26.436Z,1.35
2023-04-27T02:10:01.073Z,1.30
2023-04-27T02:12:36.521Z,1.23
2023-04-27T02:15:10.919Z,2.17
2023-04-27T02:17:44.261Z,1.92
2023-04-27T02:20:19.193Z,1.50
2023-04-27T02:22:53.521Z,2.00
2023-04-27T02:25:28.106Z,1.33
2023-04-27T02:28:04.663Z,1.67
2023-04-27T02:30:37.551Z,1.98
2023-04-27T02:33:10.943Z,2.17
2023-04-27T02:35:43.854Z,1.00
2023-04-27T02:38:16.386Z,1.58
2023-04-27T02:40:55.596Z,0.98
2023-04-27T02:43:28.102Z,1.40
2023-04-27T02:46:03.220Z,1.10
2023-04-27T02:48:36.612Z,1.60
2023-04-27T02:51:10.744Z,1.35
2023-04-27T02:53:43.523Z,1.60
2023-04-27T02:56:17.972Z,1.15
2023-04-27T02:58:50.531Z,1.17
2023-04-27T03:01:23.599Z,1.10
2023-04-27T03:03:56.637Z,1.98
2023-04-27T03:06:30.554Z,1.55
2023-04-27T03:09:04.229Z,1.25
2023-04-27T03:11:38.429Z,1.70
2023-04-27T03:14:11.878Z,1.10
2023-04-27T03:16:44.440Z,1.17
2023-04-27T03:19:19.145Z,1.42
2023-04-27T03:21:52.261Z,1.35
2023-04-27T03:24:25.973Z,1.83
2023-04-27T03:26:59.958Z,1.40
2023-04-27T03:29:33.144Z,1.33
2023-04-27T03:32:06.603Z,1.55
2023-04-27T03:34:39.718Z,1.38
2023-04-27T03:37:12.423Z,1.33
2023-04-27T03:39:45.701Z,0.90
2023-04-27T03:42:20.200Z,1.02
2023-04-27T03:44:53.472Z,1.92
2023-04-27T03:47:26.106Z,1.73
2023-04-27T03:50:00.035Z,1.45
2023-04-27T03:52:32.967Z,1.40
2023-04-27T03:55:07.613Z,0.98
2023-04-27T03:57:41.992Z,1.75
2023-04-27T04:00:16.355Z,1.25
2023-04-27T04:02:49.874Z,2.45
2023-04-27T04:05:23.994Z,1.87
2023-04-27T04:07:57.641Z,1.30
2023-04-27T04:10:31.802Z,2.17
2023-04-27T04:13:06.085Z,1.92
2023-04-27T04:15:39.374Z,1.60
2023-04-27T04:18:12.056Z,2.00
2023-04-27T04:20:45.116Z,1.67
2023-04-27T04:23:18.396Z,1.95
2023-04-27T04:25:52.494Z,2.10
2023-04-27T04:28:28.621Z,1.85
2023-04-27T04:31:02.146Z,2.37
2023-04-27T04:33:35.184Z,1.58
2023-04-27T04:36:08.482Z,2.38
2023-04-27T04:38:41.502Z,2.40
2023-04-27T04:41:14.848Z,2.40
2023-04-27T04:43:49.468Z,2.97
2023-04-27T04:46:25.197Z,2.65
2023-04-27T04:48:57.730Z,2.53
2023-04-27T04:51:30.934Z,1.60
2023-04-27T04:54:03.934Z,3.13
2023-04-27T04:56:36.895Z,3.17
2023-04-27T04:59:11.886Z,3.53
2023-04-27T05:01:44.937Z,2.40
2023-04-27T05:04:18.839Z,2.70
2023-04-27T05:06:53.391Z,2.95
2023-04-27T05:09:26.054Z,2.73
2023-04-27T05:11:59.378Z,2.58
2023-04-27T05:14:33.376Z,2.45
2023-04-27T05:17:07.052Z,2.55
2023-04-27T05:19:39.697Z,2.08
2023-04-27T05:22:13.012Z,1.90
2023-04-27T05:24:45.683Z,2.08
2023-04-27T05:27:19.077Z,2.13
2023-04-27T05:29:53.018Z,1.77
2023-04-27T05:32:25.829Z,2.08
2023-04-27T05:34:59.054Z,2.47
2023-04-27T05:37:31.805Z,2.00
2023-04-27T05:40:06.495Z,1.88
2023-04-27T05:42:39.508Z,1.88
2023-04-27T05:45:13.646Z,1.95
2023-04-27T05:47:46.859Z,2.63
2023-04-27T05:50:19.568Z,1.50
2023-04-27T05:52:52.577Z,2.30
2023-04-27T05:55:25.250Z,1.60
2023-04-27T05:58:07.136Z,2.20
2023-04-27T06:00:43.646Z,2.53
2023-04-27T06:03:17.244Z,2.20
2023-04-27T06:05:57.396Z,2.80
2023-04-27T06:08:32.230Z,1.70
2023-04-27T06:11:05.150Z,1.75
2023-04-27T06:13:38.138Z,1.47
2023-04-27T06:16:12.146Z,1.60
2023-04-27T06:18:45.352Z,1.40
2023-04-27T06:21:18.453Z,1.55
2023-04-27T06:23:51.538Z,1.63
2023-04-27T06:26:24.487Z,1.30
2023-04-27T06:28:57.383Z,1.30
2023-04-27T06:31:31.453Z,1.60
2023-04-27T06:34:05.016Z,1.42
2023-04-27T06:36:37.862Z,1.17
2023-04-27T06:39:10.437Z,1.80
2023-04-27T06:41:43.209Z,1.17
2023-04-27T06:44:25.068Z,1.77
2023-04-27T06:46:59.685Z,14.02
2023-04-27T06:49:32.633Z,6.28
2023-04-27T06:52:05.999Z,5.67
2023-04-27T06:54:39.141Z,5.15
2023-04-27T06:57:12.043Z,3.75
2023-04-27T06:59:45.904Z,2.58
2023-04-27T07:02:21.155Z,2.58
2023-04-27T07:04:55.274Z,2.47
2023-04-27T07:07:28.398Z,2.05
2023-04-27T07:10:01.287Z,2.13
2023-04-27T07:12:37.337Z,2.35
2023-04-27T07:15:10.716Z,2.00
2023-04-27T07:17:45.555Z,2.13
2023-04-27T07:20:18.661Z,2.10
2023-04-27T07:22:51.903Z,1.90
2023-04-27T07:25:24.490Z,2.25
2023-04-27T07:27:57.555Z,2.65
2023-04-27T07:30:31.191Z,2.30
2023-04-27T07:33:05.848Z,2.75
2023-04-27T07:35:39.796Z,3.45
2023-04-27T07:38:12.716Z,2.35
2023-04-27T07:40:48.519Z,2.50
2023-04-27T07:43:40.865Z,2.17
2023-04-27T07:46:13.832Z,2.00
2023-04-27T07:48:50.547Z,2.80
2023-04-27T07:51:23.447Z,2.33
2023-04-27T07:53:56.854Z,2.40
2023-04-27T07:56:29.380Z,2.27
2023-04-27T07:59:02.641Z,1.48
2023-04-27T08:01:35.873Z,2.15
2023-04-27T08:04:10.519Z,2.65
2023-04-27T08:06:43.443Z,2.40
2023-04-27T08:09:16.619Z,1.90
2023-04-27T08:11:49.562Z,2.50
2023-04-27T08:14:21.959Z,1.83
2023-04-27T08:16:55.103Z,1.83
2023-04-27T08:19:29.054Z,1.88
2023-04-27T08:22:03.579Z,1.57
2023-04-27T08:24:36.466Z,1.67
2023-04-27T08:27:10.172Z,1.63
2023-04-27T08:29:47.142Z,2.05
2023-04-27T08:32:19.829Z,2.13
2023-04-27T08:34:54.082Z,1.60
2023-04-27T08:37:27.238Z,1.30
2023-04-27T08:39:59.996Z,1.58
2023-04-27T08:42:33.355Z,1.63
2023-04-27T08:45:09.200Z,3.13
2023-04-27T08:47:43.913Z,1.67
2023-04-27T08:50:18.644Z,2.08
2023-04-27T08:52:52.657Z,2.00
2023-04-27T08:55:25.586Z,1.70
2023-04-27T08:57:59.053Z,1.60
2023-04-27T09:00:41.163Z,2.50
2023-04-27T09:03:23.800Z,1.67
2023-04-27T09:06:05.072Z,1.90
2023-04-27T09:08:43.499Z,1.27
2023-04-27T09:11:17.415Z,1.85
2023-04-27T09:13:49.855Z,1.40
2023-04-27T09:16:24.617Z,1.63
2023-04-27T09:18:58.579Z,1.75
2023-04-27T09:21:33.250Z,1.20
2023-04-27T09:24:13.218Z,1.25
2023-04-27T09:26:50.419Z,1.27
2023-04-27T09:29:33.241Z,0.75
2023-04-27T09:32:17.135Z,0.82
2023-04-27T09:34:50.744Z,0.80
2023-04-27T09:37:25.072Z,1.23
2023-04-27T09:39:57.883Z,1.13
2023-04-27T09:42:32.264Z,0.82
2023-04-27T09:45:07.222Z,0.73
2023-04-27T09:47:41.167Z,0.80
2023-04-27T09:50:15.191Z,1.48
2023-04-27T09:52:49.654Z,0.93
2023-04-27T09:55:27.930Z,0.90
2023-04-27T09:58:15.882Z,0.68
2023-04-27T10:01:00.096Z,1.15
2023-04-27T10:03:43.592Z,0.82
2023-04-27T10:06:58.044Z,1.03
2023-04-27T10:09:37.203Z,0.80
2023-04-27T10:12:18.733Z,1.20
2023-04-27T10:14:53.708Z,1.17
2023-04-27T10:17:30.755Z,0.80
2023-04-27T10:20:07.740Z,1.20
2023-04-27T10:22:43.594Z,0.82
2023-04-27T10:25:22.693Z,1.27
2023-04-27T10:28:02.575Z,1.05
2023-04-27T10:30:37.520Z,1.40
2023-04-27T10:33:12.322Z,1.10
2023-04-27T10:35:53.510Z,1.25
2023-04-27T10:38:31.274Z,0.90
2023-04-27T10:41:05.788Z,0.63
2023-04-27T10:43:39.165Z,0.80
2023-04-27T10:46:13.283Z,0.90
2023-04-27T10:48:48.763Z,0.60
2023-04-27T10:51:21.262Z,1.08
2023-04-27T10:53:54.185Z,1.02
2023-04-27T10:56:29.452Z,0.95
2023-04-27T10:59:04.128Z,1.00
2023-04-27T11:01:37.242Z,0.65
2023-04-27T11:04:10.659Z,0.45
2023-04-27T11:06:46.250Z,0.80
2023-04-27T11:09:27.778Z,1.25
2023-04-27T11:12:01.967Z,0.60
2023-04-27T11:14:35.953Z,0.70
2023-04-27T11:17:09.264Z,1.00
2023-04-27T11:19:47.093Z,0.80
2023-04-27T11:22:19.552Z,0.80
2023-04-27T11:24:53.727Z,1.17
2023-04-27T11:27:37.701Z,1.00
2023-04-27T11:30:21.602Z,0.90
2023-04-27T11:32:54.798Z,0.70
2023-04-27T11:35:37.601Z,1.05
2023-04-27T11:38:18.077Z,0.80
2023-04-27T11:41:00.610Z,0.77
2023-04-27T11:43:35.925Z,0.90
2023-04-27T11:46:10.742Z,0.77
2023-04-27T11:48:43.707Z,1.27
2023-04-27T11:51:17.171Z,0.93
2023-04-27T11:53:51.432Z,1.02
2023-04-27T11:56:26.005Z,1.02
2023-04-27T11:59:00.127Z,0.63
2023-04-27T12:01:38.185Z,0.70
2023-04-27T12:04:12.236Z,1.07
2023-04-27T12:06:44.978Z,0.80
2023-04-27T12:09:18.146Z,0.80
2023-04-27T12:11:50.883Z,1.13
2023-04-27T12:14:25.318Z,0.73
2023-04-27T12:16:58.280Z,0.77
2023-04-27T12:19:31.329Z,1.25
2023-04-27T12:22:05.183Z,1.25
2023-04-27T12:24:37.802Z,0.73
2023-04-27T12:27:11.198Z,1.00
2023-04-27T12:29:45.178Z,1.40
2023-04-27T12:32:18.435Z,1.23
2023-04-27T12:34:51.189Z,1.05
2023-04-27T12:37:26.241Z,0.75
2023-04-27T12:39:59.329Z,1.33
2023-04-27T12:42:32.510Z,1.00
2023-04-27T12:45:07.737Z,1.00
2023-04-27T12:47:58.267Z,0.85
2023-04-27T12:50:34.342Z,0.98
2023-04-27T12:53:07.426Z,1.02
2023-04-27T12:55:40.157Z,1.10
2023-04-27T12:58:12.998Z,0.93
2023-04-27T13:00:47.727Z,1.15
2023-04-27T13:03:20.658Z,1.02
2023-04-27T13:05:54.410Z,1.25
2023-04-27T13:08:27.161Z,1.30
2023-04-27T13:11:00.202Z,1.23
2023-04-27T13:13:32.827Z,0.82
2023-04-27T13:16:07.428Z,1.13
2023-04-27T13:18:40.869Z,0.90
2023-04-27T13:21:14.769Z,1.27
2023-04-27T13:23:48.158Z,1.40
2023-04-27T13:26:21.616Z,1.23
2023-04-27T13:28:54.118Z,1.27
2023-04-27T13:31:29.337Z,0.95
2023-04-27T13:34:04.343Z,1.37
2023-04-27T13:36:37.608Z,1.40
2023-04-27T13:39:10.428Z,0.85
2023-04-27T13:41:43.661Z,1.10
2023-04-27T13:44:16.483Z,1.23
2023-04-27T13:46:50.984Z,1.30
2023-04-27T13:49:24.018Z,1.30
2023-04-27T13:51:56.879Z,0.98
2023-04-27T13:54:29.444Z,1.90
2023-04-27T13:57:03.616Z,1.30
2023-04-27T13:59:36.742Z,1.50
2023-04-27T14:02:10.912Z,0.80
2023-04-27T14:04:43.596Z,1.13
2023-04-27T14:07:16.925Z,1.02
2023-04-27T14:09:49.879Z,1.23
2023-04-27T14:12:22.798Z,1.07
2023-04-27T14:14:57.243Z,0.98
2023-04-27T14:17:32.534Z,0.95
2023-04-27T14:20:07.132Z,1.08
2023-04-27T14:22:40.088Z,1.50
2023-04-27T14:25:13.309Z,1.20
2023-04-27T14:27:46.012Z,1.25
2023-04-27T14:30:18.966Z,1.48
2023-04-27T14:32:53.997Z,1.50
2023-04-27T14:35:28.683Z,1.38
2023-04-27T14:38:04.525Z,1.57
2023-04-27T14:40:37.786Z,1.30
2023-04-27T14:43:10.492Z,1.67
2023-04-27T14:45:51.542Z,1.05
2023-04-27T14:48:29.784Z,1.33
2023-04-27T14:51:02.836Z,0.83
2023-04-27T14:53:35.274Z,1.30
2023-04-27T14:56:08.808Z,1.20
2023-04-27T14:58:41.636Z,1.23
2023-04-27T15:01:14.301Z,1.35
2023-04-27T15:03:48.773Z,1.10
2023-04-27T15:06:22.691Z,1.38
2023-04-27T15:08:55.804Z,1.20
2023-04-27T15:11:28.401Z,2.13
2023-04-27T15:14:01.260Z,2.10
2023-04-27T15:16:34.396Z,1.53
2023-04-27T15:19:08.613Z,1.83
2023-04-27T15:21:41.769Z,2.40
2023-04-27T15:24:14.719Z,1.23
2023-04-27T15:26:48.636Z,1.00
2023-04-27T15:29:25.561Z,1.10
2023-04-27T15:31:58.118Z,1.52
2023-04-27T15:34:33.113Z,0.98
2023-04-27T15:37:05.833Z,1.02
2023-04-27T15:39:39.036Z,1.38
2023-04-27T15:42:11.669Z,1.00
2023-04-27T15:44:47.353Z,1.05
2023-04-27T15:47:20.349Z,1.17
2023-04-27T15:49:57.893Z,1.25
2023-04-27T15:52:34.421Z,0.80
2023-04-27T15:55:09.007Z,1.07
2023-04-27T15:57:41.763Z,1.10
2023-04-27T16:00:17.042Z,0.90
2023-04-27T16:02:50.566Z,1.48
2023-04-27T16:05:25.035Z,1.30
2023-04-27T16:07:57.873Z,1.40
2023-04-27T16:10:31.248Z,1.63
2023-04-27T16:13:03.765Z,1.42
2023-04-27T16:15:36.925Z,1.98
2023-04-27T16:18:09.776Z,1.30
2023-04-27T16:20:47.441Z,1.33
2023-04-27T16:23:20.128Z,1.98
2023-04-27T16:25:52.981Z,1.63
2023-04-27T16:28:25.762Z,1.40
2023-04-27T16:30:58.964Z,1.63
2023-04-27T16:33:31.976Z,1.20
2023-04-27T16:36:06.794Z,2.15
2023-04-27T16:41:30.051Z,1.98
2023-04-27T16:44:02.932Z,2.40
2023-04-27T16:46:35.437Z,2.20
2023-04-27T16:49:09.048Z,3.03
2023-04-27T16:51:46.164Z,1.98
2023-04-27T16:54:18.643Z,2.70
2023-04-27T16:56:52.743Z,4.78
2023-04-27T16:59:32.661Z,3.73
2023-04-27T17:02:17.010Z,3.40
2023-04-27T17:04:54.862Z,2.75
2023-04-27T17:07:32.873Z,3.17
2023-04-27T17:10:09.321Z,2.67
2023-04-27T17:12:42.288Z,3.20
2023-04-27T17:15:28.131Z,2.88
2023-04-27T17:18:04.778Z,3.90
2023-04-27T17:20:39.753Z,3.63
2023-04-27T17:23:15.233Z,2.58
2023-04-27T17:25:48.476Z,2.97
2023-04-27T17:28:26.099Z,4.18
2023-04-27T17:30:59.009Z,8.70
2023-04-27T17:33:32.110Z,3.38
2023-04-27T17:36:07.516Z,4.85
2023-04-27T17:38:42.892Z,3.57
2023-04-27T17:41:15.543Z,4.13
2023-04-27T17:43:51.429Z,2.55
2023-04-27T17:46:28.236Z,2.05
2023-04-27T17:49:01.772Z,2.40
2023-04-27T17:51:39.723Z,2.20
2023-04-27T17:54:14.266Z,2.05
2023-04-27T17:56:46.768Z,2.88
2023-04-27T17:59:20.109Z,2.80
2023-04-27T18:01:52.848Z,2.53
2023-04-27T18:04:26.017Z,2.10
2023-04-27T18:06:58.614Z,4.35
2023-04-27T18:09:33.348Z,3.47
2023-04-27T18:12:11.104Z,3.65
2023-04-27T18:14:45.200Z,6.57
2023-04-27T18:17:17.624Z,7.63
2023-04-27T18:20:04.369Z,7.05
2023-04-27T18:22:40.690Z,9.48
2023-04-27T18:25:19.369Z,7.88
2023-04-27T18:27:57.062Z,11.68
2023-04-27T18:30:31.851Z,12.27
2023-04-27T18:33:04.649Z,11.23
2023-04-27T18:35:40.323Z,11.40
2023-04-27T18:38:13.080Z,6.88
2023-04-27T18:40:47.744Z,5.30
2023-04-27T18:43:20.404Z,11.10
2023-04-27T18:45:53.308Z,5.00
2023-04-27T18:48:26.098Z,3.33
2023-04-27T18:50:59.123Z,2.42
2023-04-27T18:53:34.343Z,1.58
2023-04-27T18:56:11.579Z,1.97
2023-04-27T18:58:48.794Z,1.52
2023-04-27T19:01:25.874Z,1.80
2023-04-27T19:03:59.750Z,1.92
2023-04-27T19:06:32.912Z,1.40
2023-04-27T19:09:06.058Z,1.87
2023-04-27T19:11:40.120Z,1.30
2023-04-27T19:14:14.779Z,1.67
2023-04-27T19:16:51.957Z,1.35
2023-04-27T19:19:26.378Z,1.63
2023-04-27T19:22:00.163Z,1.53
2023-04-27T19:24:32.653Z,1.00
2023-04-27T19:27:08.272Z,1.45
2023-04-27T19:29:59.271Z,1.73
2023-04-27T19:32:41.959Z,1.38
2023-04-27T19:35:14.925Z,1.37
2023-04-27T19:37:50.397Z,1.45
2023-04-27T19:40:23.423Z,1.20
2023-04-27T19:42:57.805Z,2.03
2023-04-27T19:45:30.451Z,2.30
2023-04-27T19:48:03.515Z,1.40
2023-04-27T19:50:40.862Z,1.67
2023-04-27T19:53:16.248Z,1.15
2023-04-27T19:55:52.424Z,1.65
2023-04-27T19:58:26.685Z,1.67
2023-04-27T20:00:59.657Z,1.47
2023-04-27T20:03:32.529Z,1.20
2023-04-27T20:06:06.049Z,1.65
2023-04-27T20:08:38.613Z,1.48
2023-04-27T20:11:11.524Z,1.65
2023-04-27T20:13:46.335Z,1.43
2023-04-27T20:16:20.050Z,1.33
2023-04-27T20:18:53.005Z,1.75
2023-04-27T20:21:28.434Z,1.40
2023-04-27T20:24:01.064Z,1.40
2023-04-27T20:26:33.883Z,1.77
2023-04-27T20:29:08.402Z,1.38
2023-04-27T20:31:41.570Z,1.35
2023-04-27T20:34:16.263Z,1.10
2023-04-27T20:36:50.475Z,2.05
2023-04-27T20:39:23.007Z,2.33
2023-04-27T20:41:56.666Z,1.92
2023-04-27T20:44:32.381Z,2.47
2023-04-27T20:47:09.367Z,1.95
2023-04-27T20:49:42.366Z,1.52
2023-04-27T20:52:15.313Z,2.23
2023-04-27T20:54:47.880Z,2.90
2023-04-27T20:57:21.169Z,2.42
2023-04-27T20:59:56.575Z,1.77
2023-04-27T21:02:29.932Z,2.00
2023-04-27T21:05:02.689Z,2.10
2023-04-27T21:07:37.192Z,1.73
2023-04-27T21:10:10.124Z,1.73
2023-04-27T21:12:43.357Z,1.88
2023-04-27T21:15:17.283Z,2.55
2023-04-27T21:17:50.436Z,2.77
2023-04-27T21:20:23.373Z,1.55
2023-04-27T21:22:56.889Z,2.22
2023-04-27T21:25:29.497Z,2.53
2023-04-27T21:28:02.656Z,3.47
2023-04-27T21:30:36.672Z,2.97
2023-04-27T21:33:09.708Z,3.13
2023-04-27T21:35:42.378Z,3.08
2023-04-27T21:38:15.255Z,2.67
2023-04-27T21:40:48.388Z,2.30
2023-04-27T21:43:21.538Z,2.67
2023-04-27T21:45:55.506Z,2.60
2023-04-27T21:48:28.540Z,2.15
2023-04-27T21:51:01.536Z,1.92
2023-04-27T21:53:34.113Z,2.22
2023-04-27T21:56:07.921Z,1.93
2023-04-27T21:58:40.866Z,1.92
2023-04-27T22:01:15.150Z,2.70
2023-04-27T22:03:48.381Z,2.63
2023-04-27T22:06:21.971Z,2.83
2023-04-27T22:08:54.888Z,1.80
2023-04-27T22:11:27.473Z,2.78
2023-04-27T22:14:00.437Z,2.47
2023-04-27T22:16:34.725Z,1.80
2023-04-27T22:19:08.598Z,2.45
2023-04-27T22:21:41.482Z,2.30
2023-04-27T22:24:14.789Z,2.13
2023-04-27T22:26:48.455Z,2.40
2023-04-27T22:29:21.399Z,2.22
2023-04-27T22:31:55.409Z,2.83
2023-04-27T22:34:28.378Z,2.30
2023-04-27T22:37:02.167Z,1.80
2023-04-27T22:39:35.376Z,1.65
2023-04-27T22:42:08.148Z,1.67
2023-04-27T22:44:41.412Z,1.98
2023-04-27T22:47:15.379Z,1.77
2023-04-27T22:49:50.106Z,1.42
2023-04-27T22:52:24.808Z,1.50
2023-04-27T22:54:57.617Z,1.73
2023-04-27T22:57:30.528Z,1.90
2023-04-27T23:00:05.862Z,1.90
2023-04-27T23:02:42.203Z,2.65
2023-04-27T23:05:15.108Z,2.55
2023-04-27T23:07:47.869Z,2.10
2023-04-27T23:10:20.933Z,2.65
2023-04-27T23:12:54.986Z,1.97
2023-04-27T23:15:28.196Z,2.55
2023-04-27T23:18:02.069Z,3.22
2023-04-27T23:20:35.072Z,3.67
2023-04-27T23:23:07.933Z,2.38
2023-04-27T23:25:40.991Z,2.73
2023-04-27T23:28:14.038Z,3.47
2023-04-27T23:30:52.933Z,2.80
2023-04-27T23:33:27.541Z,2.50
2023-04-27T23:36:00.197Z,2.28
2023-04-27T23:38:33.700Z,1.27
2023-04-27T23:41:06.258Z,1.63
2023-04-27T23:43:39.297Z,1.75
2023-04-27T23:46:11.756Z,2.20
2023-04-27T23:48:46.617Z,1.75
2023-04-27T23:51:19.071Z,1.90
2023-04-27T23:53:51.491Z,1.55
2023-04-27T23:56:24.451Z,1.98
2023-04-27T23:58:57.550Z,1.70
